sensor_id;sensor_type;location;lat;lon;timestamp;P1;durP1;ratioP1;P2;durP2;ratioP2
53207;SDS011;39093;52.788;6.940;2023-07-28T00:02:21;41.40;;;19.77;;
53207;SDS011;39093;52.788;6.940;2023-07-28T00:04:48;43.55;;;18.77;;
53207;SDS011;39093;52.788;6.940;2023-07-28T00:07:15;52.15;;;21.13;;
53207;SDS011;39093;52.788;6.940;2023-07-28T00:09:42;52.53;;;21.00;;
53207;SDS011;39093;52.788;6.940;2023-07-28T00:12:10;40.30;;;20.27;;
53207;SDS011;39093;52.788;6.940;2023-07-28T00:14:36;34.90;;;19.42;;
53207;SDS011;39093;52.788;6.940;2023-07-28T00:17:03;35.95;;;18.20;;
53207;SDS011;39093;52.788;6.940;2023-07-28T00:19:31;33.92;;;18.23;;
53207;SDS011;39093;52.788;6.940;2023-07-28T00:21:58;48.63;;;20.58;;
53207;SDS011;39093;52.788;6.940;2023-07-28T00:24:25;36.95;;;18.83;;
53207;SDS011;39093;52.788;6.940;2023-07-28T00:26:51;43.10;;;20.30;;
53207;SDS011;39093;52.788;6.940;2023-07-28T00:29:19;36.85;;;18.85;;
53207;SDS011;39093;52.788;6.940;2023-07-28T00:31:45;32.00;;;17.83;;
53207;SDS011;39093;52.788;6.940;2023-07-28T00:34:13;31.15;;;18.02;;
53207;SDS011;39093;52.788;6.940;2023-07-28T00:36:40;41.08;;;20.50;;
53207;SDS011;39093;52.788;6.940;2023-07-28T00:39:07;44.90;;;20.17;;
53207;SDS011;39093;52.788;6.940;2023-07-28T00:41:34;39.97;;;21.15;;
53207;SDS011;39093;52.788;6.940;2023-07-28T00:44:01;46.88;;;21.00;;
53207;SDS011;39093;52.788;6.940;2023-07-28T00:46:28;41.97;;;19.17;;
53207;SDS011;39093;52.788;6.940;2023-07-28T00:48:55;48.78;;;21.00;;
53207;SDS011;39093;52.788;6.940;2023-07-28T00:51:23;42.22;;;20.35;;
53207;SDS011;39093;52.788;6.940;2023-07-28T00:53:50;59.97;;;21.88;;
53207;SDS011;39093;52.788;6.940;2023-07-28T00:56:19;42.85;;;21.27;;
53207;SDS011;39093;52.788;6.940;2023-07-28T00:58:48;37.38;;;19.75;;
53207;SDS011;39093;52.788;6.940;2023-07-28T01:01:15;37.03;;;19.83;;
53207;SDS011;39093;52.788;6.940;2023-07-28T01:03:42;49.97;;;22.10;;
53207;SDS011;39093;52.788;6.940;2023-07-28T01:11:30;36.00;;;19.58;;
53207;SDS011;39093;52.788;6.940;2023-07-28T01:13:57;44.90;;;22.60;;
53207;SDS011;39093;52.788;6.940;2023-07-28T01:16:24;56.75;;;21.70;;
53207;SDS011;39093;52.788;6.940;2023-07-28T01:18:51;46.25;;;21.13;;
53207;SDS011;39093;52.788;6.940;2023-07-28T01:21:22;41.92;;;21.15;;
53207;SDS011;39093;52.788;6.940;2023-07-28T01:24:15;42.03;;;21.88;;
53207;SDS011;39093;52.788;6.940;2023-07-28T01:26:59;52.03;;;23.00;;
53207;SDS011;39093;52.788;6.940;2023-07-28T01:29:27;57.25;;;23.45;;
53207;SDS011;39093;52.788;6.940;2023-07-28T01:31:55;47.67;;;22.40;;
53207;SDS011;39093;52.788;6.940;2023-07-28T01:34:25;46.67;;;21.63;;
53207;SDS011;39093;52.788;6.940;2023-07-28T01:36:52;44.08;;;21.85;;
53207;SDS011;39093;52.788;6.940;2023-07-28T01:39:22;43.70;;;22.67;;
53207;SDS011;39093;52.788;6.940;2023-07-28T01:41:49;54.22;;;24.02;;
53207;SDS011;39093;52.788;6.940;2023-07-28T01:44:16;48.83;;;22.33;;
53207;SDS011;39093;52.788;6.940;2023-07-28T01:46:43;57.30;;;22.50;;
53207;SDS011;39093;52.788;6.940;2023-07-28T01:49:10;58.67;;;24.50;;
53207;SDS011;39093;52.788;6.940;2023-07-28T01:51:39;82.13;;;27.60;;
53207;SDS011;39093;52.788;6.940;2023-07-28T01:54:06;80.20;;;25.70;;
53207;SDS011;39093;52.788;6.940;2023-07-28T01:56:33;75.05;;;27.02;;
53207;SDS011;39093;52.788;6.940;2023-07-28T01:59:00;71.80;;;27.67;;
53207;SDS011;39093;52.788;6.940;2023-07-28T02:01:31;65.75;;;26.33;;
53207;SDS011;39093;52.788;6.940;2023-07-28T02:03:58;52.35;;;25.15;;
53207;SDS011;39093;52.788;6.940;2023-07-28T02:06:25;40.97;;;22.77;;
53207;SDS011;39093;52.788;6.940;2023-07-28T02:08:54;63.97;;;25.67;;
53207;SDS011;39093;52.788;6.940;2023-07-28T02:11:20;53.15;;;23.60;;
53207;SDS011;39093;52.788;6.940;2023-07-28T02:13:47;59.42;;;26.45;;
53207;SDS011;39093;52.788;6.940;2023-07-28T02:16:17;66.30;;;27.52;;
53207;SDS011;39093;52.788;6.940;2023-07-28T02:18:44;54.05;;;25.58;;
53207;SDS011;39093;52.788;6.940;2023-07-28T02:21:11;89.20;;;32.53;;
53207;SDS011;39093;52.788;6.940;2023-07-28T02:23:41;59.53;;;24.85;;
53207;SDS011;39093;52.788;6.940;2023-07-28T02:26:08;85.65;;;28.77;;
53207;SDS011;39093;52.788;6.940;2023-07-28T02:28:35;54.67;;;25.33;;
53207;SDS011;39093;52.788;6.940;2023-07-28T02:31:02;114.93;;;30.20;;
53207;SDS011;39093;52.788;6.940;2023-07-28T02:33:29;44.92;;;22.90;;
53207;SDS011;39093;52.788;6.940;2023-07-28T02:35:58;75.05;;;27.95;;
53207;SDS011;39093;52.788;6.940;2023-07-28T02:38:24;51.38;;;22.75;;
53207;SDS011;39093;52.788;6.940;2023-07-28T02:40:51;51.60;;;23.52;;
53207;SDS011;39093;52.788;6.940;2023-07-28T02:43:19;59.63;;;23.88;;
53207;SDS011;39093;52.788;6.940;2023-07-28T02:45:56;62.65;;;24.27;;
53207;SDS011;39093;52.788;6.940;2023-07-28T02:48:23;48.55;;;22.58;;
53207;SDS011;39093;52.788;6.940;2023-07-28T02:50:53;88.28;;;28.00;;
53207;SDS011;39093;52.788;6.940;2023-07-28T02:53:20;50.90;;;22.65;;
53207;SDS011;39093;52.788;6.940;2023-07-28T02:55:47;76.93;;;28.13;;
53207;SDS011;39093;52.788;6.940;2023-07-28T02:58:15;47.60;;;22.08;;
53207;SDS011;39093;52.788;6.940;2023-07-28T03:00:43;57.33;;;24.30;;
53207;SDS011;39093;52.788;6.940;2023-07-28T03:03:13;46.58;;;22.65;;
53207;SDS011;39093;52.788;6.940;2023-07-28T03:05:40;51.53;;;22.55;;
53207;SDS011;39093;52.788;6.940;2023-07-28T03:08:07;49.83;;;23.05;;
53207;SDS011;39093;52.788;6.940;2023-07-28T03:10:34;46.88;;;22.48;;
53207;SDS011;39093;52.788;6.940;2023-07-28T03:13:01;57.53;;;24.02;;
53207;SDS011;39093;52.788;6.940;2023-07-28T03:15:28;46.38;;;21.83;;
53207;SDS011;39093;52.788;6.940;2023-07-28T03:17:55;53.72;;;25.45;;
53207;SDS011;39093;52.788;6.940;2023-07-28T03:20:24;50.08;;;23.92;;
53207;SDS011;39093;52.788;6.940;2023-07-28T03:22:51;59.72;;;25.23;;
53207;SDS011;39093;52.788;6.940;2023-07-28T03:25:18;44.42;;;22.00;;
53207;SDS011;39093;52.788;6.940;2023-07-28T03:27:45;54.08;;;22.42;;
53207;SDS011;39093;52.788;6.940;2023-07-28T03:30:12;49.97;;;22.73;;
53207;SDS011;39093;52.788;6.940;2023-07-28T03:32:40;40.28;;;21.65;;
53207;SDS011;39093;52.788;6.940;2023-07-28T03:35:07;48.67;;;23.45;;
53207;SDS011;39093;52.788;6.940;2023-07-28T03:37:35;69.85;;;24.67;;
53207;SDS011;39093;52.788;6.940;2023-07-28T03:40:02;43.58;;;22.73;;
53207;SDS011;39093;52.788;6.940;2023-07-28T03:42:29;52.55;;;22.95;;
53207;SDS011;39093;52.788;6.940;2023-07-28T03:44:56;48.58;;;22.88;;
53207;SDS011;39093;52.788;6.940;2023-07-28T03:47:25;61.03;;;24.60;;
53207;SDS011;39093;52.788;6.940;2023-07-28T03:49:52;41.42;;;22.45;;
53207;SDS011;39093;52.788;6.940;2023-07-28T03:52:19;42.53;;;22.67;;
53207;SDS011;39093;52.788;6.940;2023-07-28T03:54:46;43.30;;;21.83;;
53207;SDS011;39093;52.788;6.940;2023-07-28T03:57:16;43.50;;;22.50;;
53207;SDS011;39093;52.788;6.940;2023-07-28T03:59:43;48.05;;;23.30;;
53207;SDS011;39093;52.788;6.940;2023-07-28T04:02:10;56.72;;;25.15;;
53207;SDS011;39093;52.788;6.940;2023-07-28T04:04:37;57.17;;;24.58;;
53207;SDS011;39093;52.788;6.940;2023-07-28T04:07:05;49.35;;;23.15;;
53207;SDS011;39093;52.788;6.940;2023-07-28T04:09:32;49.55;;;21.42;;
53207;SDS011;39093;52.788;6.940;2023-07-28T04:11:59;44.50;;;21.33;;
53207;SDS011;39093;52.788;6.940;2023-07-28T04:14:29;39.13;;;21.65;;
53207;SDS011;39093;52.788;6.940;2023-07-28T04:17:05;47.78;;;22.42;;
53207;SDS011;39093;52.788;6.940;2023-07-28T04:19:50;43.92;;;22.98;;
53207;SDS011;39093;52.788;6.940;2023-07-28T04:22:17;62.75;;;25.80;;
53207;SDS011;39093;52.788;6.940;2023-07-28T04:24:48;53.40;;;23.98;;
53207;SDS011;39093;52.788;6.940;2023-07-28T04:27:17;55.72;;;25.80;;
53207;SDS011;39093;52.788;6.940;2023-07-28T04:29:44;54.60;;;25.17;;
53207;SDS011;39093;52.788;6.940;2023-07-28T04:32:12;45.65;;;22.83;;
53207;SDS011;39093;52.788;6.940;2023-07-28T04:34:39;45.28;;;21.95;;
53207;SDS011;39093;52.788;6.940;2023-07-28T04:37:06;46.55;;;23.10;;
53207;SDS011;39093;52.788;6.940;2023-07-28T04:39:33;69.03;;;25.77;;
53207;SDS011;39093;52.788;6.940;2023-07-28T04:42:00;83.68;;;26.88;;
53207;SDS011;39093;52.788;6.940;2023-07-28T04:44:27;44.28;;;22.40;;
53207;SDS011;39093;52.788;6.940;2023-07-28T04:46:53;44.08;;;22.30;;
53207;SDS011;39093;52.788;6.940;2023-07-28T04:49:23;38.00;;;22.80;;
53207;SDS011;39093;52.788;6.940;2023-07-28T04:51:53;57.88;;;24.40;;
53207;SDS011;39093;52.788;6.940;2023-07-28T04:54:21;50.88;;;24.92;;
53207;SDS011;39093;52.788;6.940;2023-07-28T04:56:48;47.97;;;23.00;;
53207;SDS011;39093;52.788;6.940;2023-07-28T04:59:19;41.85;;;21.92;;
53207;SDS011;39093;52.788;6.940;2023-07-28T05:01:46;41.80;;;20.70;;
53207;SDS011;39093;52.788;6.940;2023-07-28T05:04:13;42.90;;;21.05;;
53207;SDS011;39093;52.788;6.940;2023-07-28T05:06:40;60.28;;;25.33;;
53207;SDS011;39093;52.788;6.940;2023-07-28T05:09:09;42.00;;;22.85;;
53207;SDS011;39093;52.788;6.940;2023-07-28T05:11:37;51.38;;;24.15;;
53207;SDS011;39093;52.788;6.940;2023-07-28T05:14:04;47.75;;;22.75;;
53207;SDS011;39093;52.788;6.940;2023-07-28T05:16:32;42.63;;;22.23;;
53207;SDS011;39093;52.788;6.940;2023-07-28T05:18:59;49.17;;;23.25;;
53207;SDS011;39093;52.788;6.940;2023-07-28T05:21:27;53.25;;;23.73;;
53207;SDS011;39093;52.788;6.940;2023-07-28T05:23:58;44.15;;;22.25;;
53207;SDS011;39093;52.788;6.940;2023-07-28T05:26:25;39.65;;;20.83;;
53207;SDS011;39093;52.788;6.940;2023-07-28T05:28:58;43.20;;;22.08;;
53207;SDS011;39093;52.788;6.940;2023-07-28T05:31:25;51.38;;;23.88;;
53207;SDS011;39093;52.788;6.940;2023-07-28T05:33:52;55.53;;;24.02;;
53207;SDS011;39093;52.788;6.940;2023-07-28T05:36:20;42.00;;;22.73;;
53207;SDS011;39093;52.788;6.940;2023-07-28T05:38:47;34.13;;;20.50;;
53207;SDS011;39093;52.788;6.940;2023-07-28T05:41:14;39.97;;;22.67;;
53207;SDS011;39093;52.788;6.940;2023-07-28T05:43:41;50.08;;;23.75;;
53207;SDS011;39093;52.788;6.940;2023-07-28T05:46:08;48.00;;;21.17;;
53207;SDS011;39093;52.788;6.940;2023-07-28T05:48:35;44.90;;;23.05;;
53207;SDS011;39093;52.788;6.940;2023-07-28T05:51:03;44.85;;;22.42;;
53207;SDS011;39093;52.788;6.940;2023-07-28T05:53:32;54.40;;;23.20;;
53207;SDS011;39093;52.788;6.940;2023-07-28T05:56:00;38.28;;;21.23;;
53207;SDS011;39093;52.788;6.940;2023-07-28T05:58:27;46.75;;;22.27;;
53207;SDS011;39093;52.788;6.940;2023-07-28T06:00:57;49.88;;;23.45;;
53207;SDS011;39093;52.788;6.940;2023-07-28T06:03:24;50.45;;;22.75;;
53207;SDS011;39093;52.788;6.940;2023-07-28T06:05:58;46.13;;;22.80;;
53207;SDS011;39093;52.788;6.940;2023-07-28T06:08:27;41.40;;;22.60;;
53207;SDS011;39093;52.788;6.940;2023-07-28T06:11:03;43.80;;;22.73;;
53207;SDS011;39093;52.788;6.940;2023-07-28T06:13:33;44.38;;;23.38;;
53207;SDS011;39093;52.788;6.940;2023-07-28T06:16:16;50.38;;;24.58;;
53207;SDS011;39093;52.788;6.940;2023-07-28T06:18:43;57.20;;;23.73;;
53207;SDS011;39093;52.788;6.940;2023-07-28T06:21:12;49.83;;;23.08;;
53207;SDS011;39093;52.788;6.940;2023-07-28T06:23:42;49.90;;;23.35;;
53207;SDS011;39093;52.788;6.940;2023-07-28T06:26:08;41.53;;;22.77;;
53207;SDS011;39093;52.788;6.940;2023-07-28T06:28:36;42.50;;;21.95;;
53207;SDS011;39093;52.788;6.940;2023-07-28T06:31:05;50.72;;;23.85;;
53207;SDS011;39093;52.788;6.940;2023-07-28T06:33:32;40.17;;;21.08;;
53207;SDS011;39093;52.788;6.940;2023-07-28T06:35:59;33.83;;;21.40;;
53207;SDS011;39093;52.788;6.940;2023-07-28T06:38:26;40.00;;;19.67;;
53207;SDS011;39093;52.788;6.940;2023-07-28T06:40:56;45.42;;;21.33;;
53207;SDS011;39093;52.788;6.940;2023-07-28T06:43:23;35.03;;;20.70;;
53207;SDS011;39093;52.788;6.940;2023-07-28T06:45:51;31.88;;;19.15;;
53207;SDS011;39093;52.788;6.940;2023-07-28T06:48:20;38.33;;;20.67;;
53207;SDS011;39093;52.788;6.940;2023-07-28T06:50:47;37.20;;;19.30;;
53207;SDS011;39093;52.788;6.940;2023-07-28T06:53:23;31.20;;;18.67;;
53207;SDS011;39093;52.788;6.940;2023-07-28T06:58:45;38.83;;;18.05;;
53207;SDS011;39093;52.788;6.940;2023-07-28T07:01:26;25.35;;;17.23;;
53207;SDS011;39093;52.788;6.940;2023-07-28T07:04:13;27.73;;;17.95;;
53207;SDS011;39093;52.788;6.940;2023-07-28T07:06:43;30.50;;;17.75;;
53207;SDS011;39093;52.788;6.940;2023-07-28T07:09:14;34.63;;;17.63;;
53207;SDS011;39093;52.788;6.940;2023-07-28T07:11:42;35.72;;;16.02;;
53207;SDS011;39093;52.788;6.940;2023-07-28T07:14:09;25.92;;;15.40;;
53207;SDS011;39093;52.788;6.940;2023-07-28T07:16:40;27.98;;;17.08;;
53207;SDS011;39093;52.788;6.940;2023-07-28T07:19:14;30.15;;;16.58;;
53207;SDS011;39093;52.788;6.940;2023-07-28T07:21:44;32.97;;;17.70;;
53207;SDS011;39093;52.788;6.940;2023-07-28T07:24:32;34.65;;;17.17;;
53207;SDS011;39093;52.788;6.940;2023-07-28T07:26:59;27.60;;;16.10;;
53207;SDS011;39093;52.788;6.940;2023-07-28T07:29:37;27.65;;;16.50;;
53207;SDS011;39093;52.788;6.940;2023-07-28T07:32:15;30.48;;;14.55;;
53207;SDS011;39093;52.788;6.940;2023-07-28T07:34:46;31.48;;;15.05;;
53207;SDS011;39093;52.788;6.940;2023-07-28T07:37:29;26.17;;;14.57;;
53207;SDS011;39093;52.788;6.940;2023-07-28T08:01:25;17.50;;;10.63;;
53207;SDS011;39093;52.788;6.940;2023-07-28T08:03:52;20.23;;;11.27;;
53207;SDS011;39093;52.788;6.940;2023-07-28T08:10:21;23.30;;;12.00;;
53207;SDS011;39093;52.788;6.940;2023-07-28T08:12:48;18.60;;;11.77;;
53207;SDS011;39093;52.788;6.940;2023-07-28T08:15:16;13.98;;;11.27;;
53207;SDS011;39093;52.788;6.940;2023-07-28T08:17:43;19.85;;;11.23;;
53207;SDS011;39093;52.788;6.940;2023-07-28T08:23:39;21.65;;;12.02;;
53207;SDS011;39093;52.788;6.940;2023-07-28T08:26:06;18.35;;;10.73;;
53207;SDS011;39093;52.788;6.940;2023-07-28T08:29:05;18.33;;;10.23;;
53207;SDS011;39093;52.788;6.940;2023-07-28T08:31:32;22.83;;;11.45;;
53207;SDS011;39093;52.788;6.940;2023-07-28T08:34:01;21.67;;;10.95;;
53207;SDS011;39093;52.788;6.940;2023-07-28T08:36:28;16.52;;;10.55;;
53207;SDS011;39093;52.788;6.940;2023-07-28T08:39:42;17.42;;;9.27;;
53207;SDS011;39093;52.788;6.940;2023-07-28T08:42:31;15.77;;;8.48;;
53207;SDS011;39093;52.788;6.940;2023-07-28T08:45:03;14.77;;;7.63;;
53207;SDS011;39093;52.788;6.940;2023-07-28T08:47:32;11.98;;;7.55;;
53207;SDS011;39093;52.788;6.940;2023-07-28T08:50:00;13.82;;;6.90;;
53207;SDS011;39093;52.788;6.940;2023-07-28T08:52:27;17.35;;;8.25;;
53207;SDS011;39093;52.788;6.940;2023-07-28T08:54:55;14.15;;;6.53;;
53207;SDS011;39093;52.788;6.940;2023-07-28T08:57:22;11.35;;;6.72;;
53207;SDS011;39093;52.788;6.940;2023-07-28T08:59:50;8.82;;;6.22;;
53207;SDS011;39093;52.788;6.940;2023-07-28T09:02:17;16.77;;;7.65;;
53207;SDS011;39093;52.788;6.940;2023-07-28T09:04:46;9.90;;;6.00;;
53207;SDS011;39093;52.788;6.940;2023-07-28T09:07:14;10.35;;;5.65;;
53207;SDS011;39093;52.788;6.940;2023-07-28T09:09:41;12.05;;;5.85;;
53207;SDS011;39093;52.788;6.940;2023-07-28T09:12:09;7.75;;;4.72;;
53207;SDS011;39093;52.788;6.940;2023-07-28T09:14:36;14.77;;;5.93;;
53207;SDS011;39093;52.788;6.940;2023-07-28T09:17:11;12.43;;;5.47;;
53207;SDS011;39093;52.788;6.940;2023-07-28T09:19:52;11.32;;;5.57;;
53207;SDS011;39093;52.788;6.940;2023-07-28T09:22:20;9.05;;;5.30;;
53207;SDS011;39093;52.788;6.940;2023-07-28T09:24:50;12.70;;;5.00;;
53207;SDS011;39093;52.788;6.940;2023-07-28T09:27:26;11.05;;;5.90;;
53207;SDS011;39093;52.788;6.940;2023-07-28T09:29:56;11.20;;;5.05;;
53207;SDS011;39093;52.788;6.940;2023-07-28T09:32:28;8.40;;;5.20;;
53207;SDS011;39093;52.788;6.940;2023-07-28T09:35:17;10.95;;;4.78;;
53207;SDS011;39093;52.788;6.940;2023-07-28T09:37:45;11.55;;;6.38;;
53207;SDS011;39093;52.788;6.940;2023-07-28T09:40:17;11.82;;;5.97;;
53207;SDS011;39093;52.788;6.940;2023-07-28T09:42:46;12.48;;;5.63;;
53207;SDS011;39093;52.788;6.940;2023-07-28T09:45:21;9.50;;;5.57;;
53207;SDS011;39093;52.788;6.940;2023-07-28T09:47:51;9.55;;;4.95;;
53207;SDS011;39093;52.788;6.940;2023-07-28T09:50:24;13.90;;;5.15;;
53207;SDS011;39093;52.788;6.940;2023-07-28T09:52:54;10.43;;;4.53;;
53207;SDS011;39093;52.788;6.940;2023-07-28T09:55:28;8.95;;;5.32;;
53207;SDS011;39093;52.788;6.940;2023-07-28T09:57:56;12.73;;;5.43;;
53207;SDS011;39093;52.788;6.940;2023-07-28T10:00:27;11.32;;;5.72;;
53207;SDS011;39093;52.788;6.940;2023-07-28T10:02:55;11.93;;;5.80;;
53207;SDS011;39093;52.788;6.940;2023-07-28T10:05:25;9.32;;;5.32;;
53207;SDS011;39093;52.788;6.940;2023-07-28T10:07:53;10.30;;;5.40;;
53207;SDS011;39093;52.788;6.940;2023-07-28T10:10:20;9.60;;;5.03;;
53207;SDS011;39093;52.788;6.940;2023-07-28T10:12:51;16.33;;;6.40;;
53207;SDS011;39093;52.788;6.940;2023-07-28T10:15:29;12.18;;;5.13;;
53207;SDS011;39093;52.788;6.940;2023-07-28T10:18:51;18.58;;;6.35;;
53207;SDS011;39093;52.788;6.940;2023-07-28T10:21:26;11.30;;;5.78;;
53207;SDS011;39093;52.788;6.940;2023-07-28T10:23:58;14.25;;;5.57;;
53207;SDS011;39093;52.788;6.940;2023-07-28T10:26:31;10.52;;;6.32;;
53207;SDS011;39093;52.788;6.940;2023-07-28T10:29:12;10.90;;;6.30;;
53207;SDS011;39093;52.788;6.940;2023-07-28T10:31:49;11.15;;;5.70;;
53207;SDS011;39093;52.788;6.940;2023-07-28T10:34:18;12.55;;;5.32;;
53207;SDS011;39093;52.788;6.940;2023-07-28T10:36:45;9.75;;;4.75;;
53207;SDS011;39093;52.788;6.940;2023-07-28T10:39:13;10.45;;;5.43;;
53207;SDS011;39093;52.788;6.940;2023-07-28T10:42:05;14.38;;;5.25;;
53207;SDS011;39093;52.788;6.940;2023-07-28T10:44:32;9.77;;;4.95;;
53207;SDS011;39093;52.788;6.940;2023-07-28T10:47:00;10.98;;;5.45;;
53207;SDS011;39093;52.788;6.940;2023-07-28T10:49:28;14.68;;;6.72;;
53207;SDS011;39093;52.788;6.940;2023-07-28T10:51:55;13.77;;;5.55;;
53207;SDS011;39093;52.788;6.940;2023-07-28T10:54:23;8.32;;;4.50;;
53207;SDS011;39093;52.788;6.940;2023-07-28T10:56:50;8.95;;;5.28;;
53207;SDS011;39093;52.788;6.940;2023-07-28T10:59:17;10.23;;;5.20;;
53207;SDS011;39093;52.788;6.940;2023-07-28T11:01:44;7.32;;;4.85;;
53207;SDS011;39093;52.788;6.940;2023-07-28T11:04:13;8.82;;;5.18;;
53207;SDS011;39093;52.788;6.940;2023-07-28T11:06:42;10.10;;;5.28;;
53207;SDS011;39093;52.788;6.940;2023-07-28T11:09:15;8.80;;;4.95;;
53207;SDS011;39093;52.788;6.940;2023-07-28T11:11:43;10.95;;;4.75;;
53207;SDS011;39093;52.788;6.940;2023-07-28T11:14:14;9.93;;;5.35;;
53207;SDS011;39093;52.788;6.940;2023-07-28T11:16:42;7.28;;;5.07;;
53207;SDS011;39093;52.788;6.940;2023-07-28T11:19:11;8.52;;;4.22;;
53207;SDS011;39093;52.788;6.940;2023-07-28T11:21:42;6.05;;;4.45;;
53207;SDS011;39093;52.788;6.940;2023-07-28T11:24:10;7.22;;;4.30;;
53207;SDS011;39093;52.788;6.940;2023-07-28T11:26:38;5.93;;;4.13;;
53207;SDS011;39093;52.788;6.940;2023-07-28T11:29:06;5.75;;;4.22;;
53207;SDS011;39093;52.788;6.940;2023-07-28T11:31:33;8.88;;;4.47;;
53207;SDS011;39093;52.788;6.940;2023-07-28T11:34:00;5.70;;;4.30;;
53207;SDS011;39093;52.788;6.940;2023-07-28T11:36:29;5.78;;;3.50;;
53207;SDS011;39093;52.788;6.940;2023-07-28T11:38:58;5.40;;;3.38;;
53207;SDS011;39093;52.788;6.940;2023-07-28T11:41:26;6.75;;;3.50;;
53207;SDS011;39093;52.788;6.940;2023-07-28T11:43:54;5.53;;;3.33;;
53207;SDS011;39093;52.788;6.940;2023-07-28T11:46:38;5.90;;;3.22;;
53207;SDS011;39093;52.788;6.940;2023-07-28T11:49:18;6.55;;;3.92;;
53207;SDS011;39093;52.788;6.940;2023-07-28T11:51:53;4.93;;;3.88;;
53207;SDS011;39093;52.788;6.940;2023-07-28T11:54:21;10.20;;;4.28;;
53207;SDS011;39093;52.788;6.940;2023-07-28T11:56:50;6.35;;;4.28;;
53207;SDS011;39093;52.788;6.940;2023-07-28T11:59:20;6.20;;;4.57;;
53207;SDS011;39093;52.788;6.940;2023-07-28T12:01:54;7.70;;;5.85;;
53207;SDS011;39093;52.788;6.940;2023-07-28T12:04:29;10.57;;;6.50;;
53207;SDS011;39093;52.788;6.940;2023-07-28T12:07:13;5.88;;;5.05;;
53207;SDS011;39093;52.788;6.940;2023-07-28T12:12:13;10.35;;;6.13;;
53207;SDS011;39093;52.788;6.940;2023-07-28T12:14:44;7.90;;;5.70;;
53207;SDS011;39093;52.788;6.940;2023-07-28T12:17:34;8.80;;;6.60;;
53207;SDS011;39093;52.788;6.940;2023-07-28T12:20:06;10.95;;;7.22;;
53207;SDS011;39093;52.788;6.940;2023-07-28T12:22:41;8.98;;;6.85;;
53207;SDS011;39093;52.788;6.940;2023-07-28T12:25:09;11.02;;;6.30;;
53207;SDS011;39093;52.788;6.940;2023-07-28T12:27:36;11.75;;;6.28;;
53207;SDS011;39093;52.788;6.940;2023-07-28T12:30:04;8.95;;;5.60;;
53207;SDS011;39093;52.788;6.940;2023-07-28T12:32:41;7.57;;;4.80;;
53207;SDS011;39093;52.788;6.940;2023-07-28T12:35:28;7.68;;;5.32;;
53207;SDS011;39093;52.788;6.940;2023-07-28T12:38:04;7.50;;;4.90;;
53207;SDS011;39093;52.788;6.940;2023-07-28T12:40:34;8.35;;;4.30;;
53207;SDS011;39093;52.788;6.940;2023-07-28T12:43:04;5.93;;;4.07;;
53207;SDS011;39093;52.788;6.940;2023-07-28T12:45:33;7.10;;;3.88;;
53207;SDS011;39093;52.788;6.940;2023-07-28T12:48:03;4.43;;;3.80;;
53207;SDS011;39093;52.788;6.940;2023-07-28T12:50:30;4.65;;;3.92;;
53207;SDS011;39093;52.788;6.940;2023-07-28T12:53:07;6.30;;;3.33;;
53207;SDS011;39093;52.788;6.940;2023-07-28T12:55:43;4.35;;;2.90;;
53207;SDS011;39093;52.788;6.940;2023-07-28T12:58:13;6.70;;;3.90;;
53207;SDS011;39093;52.788;6.940;2023-07-28T13:00:43;6.55;;;2.78;;
53207;SDS011;39093;52.788;6.940;2023-07-28T13:03:13;4.13;;;2.90;;
53207;SDS011;39093;52.788;6.940;2023-07-28T13:05:41;6.53;;;2.70;;
53207;SDS011;39093;52.788;6.940;2023-07-28T13:08:10;3.72;;;2.38;;
53207;SDS011;39093;52.788;6.940;2023-07-28T13:10:37;4.20;;;2.58;;
53207;SDS011;39093;52.788;6.940;2023-07-28T13:13:07;3.15;;;2.53;;
53207;SDS011;39093;52.788;6.940;2023-07-28T13:15:37;3.95;;;2.72;;
53207;SDS011;39093;52.788;6.940;2023-07-28T13:18:04;3.03;;;2.15;;
53207;SDS011;39093;52.788;6.940;2023-07-28T13:20:31;4.82;;;2.42;;
53207;SDS011;39093;52.788;6.940;2023-07-28T13:22:58;4.95;;;3.30;;
53207;SDS011;39093;52.788;6.940;2023-07-28T13:25:24;4.65;;;3.05;;
53207;SDS011;39093;52.788;6.940;2023-07-28T13:27:51;5.72;;;3.38;;
53207;SDS011;39093;52.788;6.940;2023-07-28T13:30:19;4.05;;;3.00;;
53207;SDS011;39093;52.788;6.940;2023-07-28T13:32:46;7.20;;;2.25;;
53207;SDS011;39093;52.788;6.940;2023-07-28T13:35:14;4.45;;;1.95;;
53207;SDS011;39093;52.788;6.940;2023-07-28T13:37:41;2.85;;;2.10;;
53207;SDS011;39093;52.788;6.940;2023-07-28T13:40:08;2.10;;;1.48;;
53207;SDS011;39093;52.788;6.940;2023-07-28T13:42:38;6.45;;;1.80;;
53207;SDS011;39093;52.788;6.940;2023-07-28T13:45:08;4.40;;;2.38;;
53207;SDS011;39093;52.788;6.940;2023-07-28T13:47:36;3.03;;;1.80;;
53207;SDS011;39093;52.788;6.940;2023-07-28T13:50:03;2.40;;;1.80;;
53207;SDS011;39093;52.788;6.940;2023-07-28T13:52:30;2.40;;;1.60;;
53207;SDS011;39093;52.788;6.940;2023-07-28T13:54:57;4.03;;;2.00;;
53207;SDS011;39093;52.788;6.940;2023-07-28T13:57:27;2.88;;;1.75;;
53207;SDS011;39093;52.788;6.940;2023-07-28T13:59:54;3.53;;;2.00;;
53207;SDS011;39093;52.788;6.940;2023-07-28T14:02:21;2.38;;;1.70;;
53207;SDS011;39093;52.788;6.940;2023-07-28T14:04:49;4.85;;;1.70;;
53207;SDS011;39093;52.788;6.940;2023-07-28T14:07:16;2.28;;;1.85;;
53207;SDS011;39093;52.788;6.940;2023-07-28T14:09:44;1.95;;;1.80;;
53207;SDS011;39093;52.788;6.940;2023-07-28T14:12:11;2.92;;;1.85;;
53207;SDS011;39093;52.788;6.940;2023-07-28T14:14:38;2.80;;;1.88;;
53207;SDS011;39093;52.788;6.940;2023-07-28T14:17:05;3.67;;;2.20;;
53207;SDS011;39093;52.788;6.940;2023-07-28T14:19:32;2.17;;;1.98;;
53207;SDS011;39093;52.788;6.940;2023-07-28T14:21:59;3.70;;;1.92;;
53207;SDS011;39093;52.788;6.940;2023-07-28T14:24:26;4.55;;;1.85;;
53207;SDS011;39093;52.788;6.940;2023-07-28T14:26:53;3.13;;;2.00;;
53207;SDS011;39093;52.788;6.940;2023-07-28T14:29:24;1.92;;;1.70;;
53207;SDS011;39093;52.788;6.940;2023-07-28T14:31:51;2.53;;;1.80;;
53207;SDS011;39093;52.788;6.940;2023-07-28T14:34:18;1.58;;;1.48;;
53207;SDS011;39093;52.788;6.940;2023-07-28T14:36:45;4.03;;;1.75;;
53207;SDS011;39093;52.788;6.940;2023-07-28T14:39:12;2.75;;;1.85;;
53207;SDS011;39093;52.788;6.940;2023-07-28T14:41:39;5.28;;;1.65;;
53207;SDS011;39093;52.788;6.940;2023-07-28T14:44:06;2.40;;;1.85;;
53207;SDS011;39093;52.788;6.940;2023-07-28T14:46:33;2.70;;;1.88;;
53207;SDS011;39093;52.788;6.940;2023-07-28T14:49:00;3.60;;;2.10;;
53207;SDS011;39093;52.788;6.940;2023-07-28T14:51:28;3.22;;;1.80;;
53207;SDS011;39093;52.788;6.940;2023-07-28T14:53:58;2.97;;;1.88;;
53207;SDS011;39093;52.788;6.940;2023-07-28T14:56:24;4.50;;;2.00;;
53207;SDS011;39093;52.788;6.940;2023-07-28T14:58:51;2.75;;;2.03;;
53207;SDS011;39093;52.788;6.940;2023-07-28T15:01:21;4.63;;;2.20;;
53207;SDS011;39093;52.788;6.940;2023-07-28T15:03:48;3.90;;;2.15;;
53207;SDS011;39093;52.788;6.940;2023-07-28T15:06:15;4.85;;;1.80;;
53207;SDS011;39093;52.788;6.940;2023-07-28T15:08:45;4.10;;;2.00;;
53207;SDS011;39093;52.788;6.940;2023-07-28T15:11:12;3.05;;;1.80;;
53207;SDS011;39093;52.788;6.940;2023-07-28T15:13:39;5.30;;;1.75;;
53207;SDS011;39093;52.788;6.940;2023-07-28T15:16:09;3.03;;;1.60;;
53207;SDS011;39093;52.788;6.940;2023-07-28T15:18:36;1.80;;;1.52;;
53207;SDS011;39093;52.788;6.940;2023-07-28T15:21:03;3.53;;;1.65;;
53207;SDS011;39093;52.788;6.940;2023-07-28T15:23:30;3.40;;;1.98;;
53207;SDS011;39093;52.788;6.940;2023-07-28T15:25:57;3.28;;;2.15;;